Time,TemperatureF,DewpointF,PressureIn,WindDirection,WindDirectionDegrees,WindSpeedMPH,WindSpeedGustMPH,Humidity,HourlyPrecipIn,Conditions,Clouds,dailyrainin,SoftwareType,DateUTC
2013-03-21 00:00:00,39.6,39.0,29.94,East,92,3.6,5.8,98,0.00,,OVC013,0.00,VWS V14.01,2013-03-21 00:00:00,
2013-03-21 00:05:00,39.6,39.0,29.94,SE,124,5.4,6.3,98,0.00,,BKN016///,0.00,VWS V14.01,2013-03-21 00:05:00,
2013-03-21 00:10:00,39.4,38.9,29.94,East,99,4.0,6.3,98,0.00,,BKN016///,0.00,VWS V14.01,2013-03-21 00:10:00,
2013-03-21 00:15:00,39.4,38.9,29.91,ESE,107,4.9,5.8,98,0.00,,BKN016///,0.00,VWS V14.01,2013-03-21 00:15:00,
2013-03-21 00:20:00,39.4,38.9,29.91,East,90,4.0,5.8,98,0.00,,BKN016///,0.00,VWS V14.01,2013-03-21 00:20:00,
2013-03-21 00:25:00,39.2,38.7,29.91,ESE,111,4.9,4.9,98,0.00,,BKN016///,0.00,VWS V14.01,2013-03-21 00:25:00,
2013-03-21 00:30:00,39.0,38.5,29.94,ESE,119,3.6,3.6,98,0.00,,BKN016///,0.00,VWS V14.01,2013-03-21 00:30:00,
2013-03-21 00:35:00,38.8,38.3,29.94,SE,139,5.8,5.8,98,0.00,,BKN016///,0.00,VWS V14.01,2013-03-21 00:35:00,
2013-03-21 00:40:00,38.7,38.2,29.94,East,100,2.7,3.1,98,0.00,,BKN016///,0.00,VWS V14.01,2013-03-21 00:40:00,
2013-03-21 00:45:00,38.5,38.0,29.94,ENE,76,2.7,2.7,98,0.00,,BKN016///,0.00,VWS V14.01,2013-03-21 00:45:00,
2013-03-21 00:50:00,38.3,37.8,29.94,East,93,4.0,4.0,98,0.00,,BKN016///,0.00,VWS V14.01,2013-03-21 00:50:00,
2013-03-21 00:55:00,38.1,37.6,29.94,East,100,3.1,3.1,98,0.00,,BKN016///,0.00,VWS V14.01,2013-03-21 00:55:00,
2013-03-21 01:00:00,37.9,37.4,29.94,ESE,103,3.1,4.0,98,0.00,,BKN039,0.00,VWS V14.01,2013-03-21 01:00:00,
2013-03-21 01:05:00,37.6,37.1,29.94,ESE,115,3.1,3.1,98,0.00,,BKN039,0.00,VWS V14.01,2013-03-21 01:05:00,
2013-03-21 01:10:00,37.6,37.1,29.94,ESE,110,3.1,3.1,98,0.00,,BKN039,0.00,VWS V14.01,2013-03-21 01:10:00,
2013-03-21 01:15:00,37.4,36.9,29.94,ESE,115,3.6,3.6,98,0.00,,BKN039,0.00,VWS V14.01,2013-03-21 01:15:00,
2013-03-21 01:20:00,37.4,36.9,29.94,SE,125,3.1,3.6,98,0.00,,BKN039,0.00,VWS V14.01,2013-03-21 01:20:00,
2013-03-21 01:25:00,37.4,36.9,29.94,East,98,4.0,4.0,98,0.00,,BKN039,0.00,VWS V14.01,2013-03-21 01:25:00,
2013-03-21 01:30:00,37.4,36.9,29.94,East,88,3.1,3.1,98,0.00,,BKN039,0.00,VWS V14.01,2013-03-21 01:30:00,
2013-03-21 01:35:00,37.6,37.1,29.94,ESE,110,4.0,4.0,98,0.00,,BKN039,0.00,VWS V14.01,2013-03-21 01:35:00,
2013-03-21 01:40:00,37.6,37.1,29.94,SE,135,4.0,4.0,98,0.00,,BKN039,0.00,VWS V14.01,2013-03-21 01:40:00,
2013-03-21 01:46:00,37.6,37.1,29.94,ESE,123,3.1,3.6,98,0.00,,BKN039,0.00,VWS V14.01,2013-03-21 01:46:00,
2013-03-21 01:51:00,37.6,37.1,29.94,ESE,117,3.1,3.6,98,0.00,,BKN039,0.00,VWS V14.01,2013-03-21 01:51:00,
2013-03-21 01:56:00,37.6,37.1,29.94,East,91,2.7,3.1,98,0.00,,BKN039,0.00,VWS V14.01,2013-03-21 01:56:00,
2013-03-21 02:01:00,37.4,36.9,29.94,ENE,76,3.1,3.6,98,0.00,,BKN027,0.00,VWS V14.01,2013-03-21 02:01:00,
2013-03-21 02:06:00,37.4,36.9,29.94,ESE,116,3.1,4.0,98,0.00,,BKN027,0.00,VWS V14.01,2013-03-21 02:06:00,
2013-03-21 02:11:00,37.2,36.7,29.94,ESE,114,3.1,4.5,98,0.00,,BKN027,0.00,VWS V14.01,2013-03-21 02:11:00,
2013-03-21 02:16:00,37.2,36.7,29.94,ESE,118,2.7,2.7,98,0.00,,BKN027,0.00,VWS V14.01,2013-03-21 02:16:00,
2013-03-21 02:22:00,37.0,36.5,29.94,ESE,103,3.6,3.6,98,0.00,,BKN027,0.00,VWS V14.01,2013-03-21 02:22:00,
2013-03-21 02:27:00,37.0,36.5,29.94,East,99,2.2,2.7,98,0.00,,BKN027,0.00,VWS V14.01,2013-03-21 02:27:00,
2013-03-21 02:32:00,36.9,36.3,29.94,East,90,3.1,3.1,98,0.00,,BKN027,0.00,VWS V14.01,2013-03-21 02:32:00,
2013-03-21 02:37:00,36.7,36.2,29.94,East,90,0.0,0.0,98,0.00,,BKN027,0.00,VWS V14.01,2013-03-21 02:37:00,
2013-03-21 02:42:00,36.5,36.0,29.94,East,90,0.0,0.0,98,0.00,,BKN027,0.00,VWS V14.01,2013-03-21 02:42:00,
2013-03-21 02:47:00,36.3,35.8,29.94,East,90,0.0,0.0,98,0.00,,BKN027,0.00,VWS V14.01,2013-03-21 02:47:00,
2013-03-21 02:52:00,36.0,35.5,29.94,East,89,0.0,0.0,98,0.00,,BKN027,0.00,VWS V14.01,2013-03-21 02:52:00,
2013-03-21 02:57:00,36.0,35.5,29.94,East,89,0.0,0.0,98,0.00,,BKN027,0.00,VWS V14.01,2013-03-21 02:57:00,
2013-03-21 03:02:00,35.8,35.3,29.94,East,89,0.0,0.0,98,0.00,,,0.00,VWS V14.01,2013-03-21 03:02:00,
2013-03-21 03:07:00,35.8,35.3,29.94,ENE,76,2.7,2.7,98,0.00,,,0.00,VWS V14.01,2013-03-21 03:07:00,
2013-03-21 03:12:00,35.8,35.3,29.94,ENE,76,0.0,0.0,98,0.00,,,0.00,VWS V14.01,2013-03-21 03:12:00,
2013-03-21 03:17:00,35.8,35.3,29.94,East,81,0.0,0.0,98,0.00,,,0.00,VWS V14.01,2013-03-21 03:17:00,
2013-03-21 03:22:00,35.8,35.3,29.94,ENE,77,0.0,0.0,98,0.00,,,0.00,VWS V14.01,2013-03-21 03:22:00,
2013-03-21 03:27:00,36.0,35.5,29.94,East,89,0.0,0.0,98,0.00,,,0.00,VWS V14.01,2013-03-21 03:27:00,
2013-03-21 03:32:00,36.1,35.6,29.94,East,88,2.7,3.1,98,0.00,,,0.00,VWS V14.01,2013-03-21 03:32:00,
2013-03-21 03:37:00,36.1,35.6,29.94,East,96,0.0,2.2,98,0.00,,,0.00,VWS V14.01,2013-03-21 03:37:00,
2013-03-21 03:42:00,36.1,35.6,29.94,ESE,111,2.7,3.1,98,0.00,,,0.00,VWS V14.01,2013-03-21 03:42:00,
2013-03-21 03:47:00,36.3,35.8,29.94,ESE,115,3.1,3.1,98,0.00,,,0.00,VWS V14.01,2013-03-21 03:47:00,
2013-03-21 03:52:00,36.3,35.8,29.94,ESE,121,3.1,3.6,98,0.00,,,0.00,VWS V14.01,2013-03-21 03:52:00,
2013-03-21 03:57:00,36.3,35.8,29.94,ESE,106,3.1,3.1,98,0.00,,,0.00,VWS V14.01,2013-03-21 03:57:00,
2013-03-21 04:00:00,36.3,35.8,29.94,ESE,110,2.7,4.0,98,0.00,,,0.00,VWS V14.01,2013-03-21 04:00:00,
2013-03-21 04:05:00,36.3,35.8,29.94,ESE,110,4.9,4.9,98,0.00,,BKN038,0.00,VWS V14.01,2013-03-21 04:05:00,
2013-03-21 04:10:00,36.3,35.8,29.94,East,93,3.6,5.4,98,0.00,,BKN038,0.00,VWS V14.01,2013-03-21 04:10:00,
2013-03-21 04:15:00,36.3,35.8,29.94,SE,124,4.9,4.9,98,0.00,,BKN038,0.00,VWS V14.01,2013-03-21 04:15:00,
2013-03-21 04:20:00,36.3,35.8,29.94,ESE,121,5.4,5.4,98,0.00,,BKN038,0.00,VWS V14.01,2013-03-21 04:20:00,
2013-03-21 04:26:00,36.3,35.8,29.94,ESE,104,4.0,4.0,98,0.00,,BKN038,0.00,VWS V14.01,2013-03-21 04:26:00,
2013-03-21 04:31:00,36.3,35.8,29.94,East,97,2.7,3.6,98,0.00,,BKN038,0.00,VWS V14.01,2013-03-21 04:31:00,
2013-03-21 04:36:00,36.5,36.0,29.94,ESE,117,2.2,2.7,98,0.00,,BKN038,0.00,VWS V14.01,2013-03-21 04:36:00,
2013-03-21 04:41:00,36.7,36.2,29.94,ENE,69,3.1,3.6,98,0.00,,BKN038,0.00,VWS V14.01,2013-03-21 04:41:00,
2013-03-21 04:46:00,36.7,36.2,29.94,ESE,104,2.7,2.7,98,0.00,,BKN038,0.00,VWS V14.01,2013-03-21 04:46:00,
2013-03-21 04:51:00,36.7,36.2,29.94,SE,126,3.6,4.0,98,0.00,,BKN038,0.00,VWS V14.01,2013-03-21 04:51:00,
2013-03-21 04:57:00,36.9,36.3,29.94,ESE,104,5.4,5.4,98,0.00,,BKN038,0.00,VWS V14.01,2013-03-21 04:57:00,
2013-03-21 05:02:00,36.9,36.3,29.94,ESE,123,2.2,3.1,98,0.00,,SCT046,0.00,VWS V14.01,2013-03-21 05:02:00,
2013-03-21 05:07:00,36.9,36.3,29.94,East,89,3.1,4.0,98,0.00,,SCT046,0.00,VWS V14.01,2013-03-21 05:07:00,
2013-03-21 05:12:00,36.9,36.3,29.94,ESE,116,2.7,3.1,98,0.00,,SCT046,0.00,VWS V14.01,2013-03-21 05:12:00,
2013-03-21 05:17:00,36.9,36.3,29.94,East,93,2.7,2.7,98,0.00,,SCT046,0.00,VWS V14.01,2013-03-21 05:17:00,
2013-03-21 05:22:00,37.0,36.5,29.94,East,94,0.0,0.0,98,0.00,,SCT046,0.00,VWS V14.01,2013-03-21 05:22:00,
2013-03-21 05:27:00,37.0,36.5,29.94,ENE,77,3.1,3.1,98,0.00,,SCT046,0.00,VWS V14.01,2013-03-21 05:27:00,
2013-03-21 05:32:00,37.0,36.5,29.94,East,83,2.7,3.1,98,0.00,,SCT046,0.00,VWS V14.01,2013-03-21 05:32:00,
2013-03-21 05:37:00,37.0,36.5,29.94,East,80,3.6,4.0,98,0.00,,SCT046,0.00,VWS V14.01,2013-03-21 05:37:00,
2013-03-21 05:42:00,37.0,36.5,29.94,ENE,63,4.0,4.0,98,0.00,,SCT046,0.00,VWS V14.01,2013-03-21 05:42:00,
2013-03-21 05:47:00,37.2,36.7,29.94,East,85,4.0,5.4,98,0.00,,SCT046,0.00,VWS V14.01,2013-03-21 05:47:00,
2013-03-21 05:52:00,37.2,36.7,29.94,East,81,4.0,4.0,98,0.00,,SCT046,0.00,VWS V14.01,2013-03-21 05:52:00,
2013-03-21 05:57:00,37.2,36.7,29.94,East,86,4.0,5.4,98,0.00,,SCT046,0.00,VWS V14.01,2013-03-21 05:57:00,
2013-03-21 06:02:00,37.4,36.9,29.94,East,80,6.3,6.3,98,0.00,,BKN036,0.00,VWS V14.01,2013-03-21 06:02:00,
2013-03-21 06:07:00,37.4,36.9,29.94,ENE,75,4.9,5.8,98,0.00,,BKN036,0.00,VWS V14.01,2013-03-21 06:07:00,
2013-03-21 06:12:00,37.4,36.9,29.94,ENE,68,5.4,5.4,98,0.00,,BKN036,0.00,VWS V14.01,2013-03-21 06:12:00,
2013-03-21 06:17:00,37.4,36.9,29.94,ENE,64,4.9,4.9,98,0.00,,BKN036,0.00,VWS V14.01,2013-03-21 06:17:00,
2013-03-21 06:23:00,37.4,36.9,29.94,ENE,70,5.4,5.8,98,0.00,,BKN036,0.00,VWS V14.01,2013-03-21 06:23:00,
2013-03-21 06:28:00,37.6,37.1,29.94,East,98,5.8,5.8,98,0.00,,BKN036,0.00,VWS V14.01,2013-03-21 06:28:00,
2013-03-21 06:33:00,37.4,36.9,29.94,East,101,5.8,5.8,98,0.00,,BKN036,0.00,VWS V14.01,2013-03-21 06:33:00,
2013-03-21 06:38:00,37.6,37.1,29.94,ESE,109,4.0,4.0,98,0.00,,BKN036,0.00,VWS V14.01,2013-03-21 06:38:00,
2013-03-21 06:43:00,37.6,37.1,29.94,SE,128,4.0,4.0,98,0.00,,BKN036,0.00,VWS V14.01,2013-03-21 06:43:00,
2013-03-21 06:48:00,37.6,37.1,29.94,East,84,4.9,5.8,98,0.00,,BKN036,0.00,VWS V14.01,2013-03-21 06:48:00,
2013-03-21 07:02:00,38.1,37.6,29.94,East,96,5.8,6.3,98,0.00,,BKN036,0.00,VWS V14.01,2013-03-21 07:02:00,
2013-03-21 07:07:00,38.1,37.6,29.94,SE,131,5.4,5.4,98,0.00,,BKN036,0.00,VWS V14.01,2013-03-21 07:07:00,
2013-03-21 07:12:00,38.5,38.0,29.94,NE,54,4.0,4.9,98,0.00,,BKN036,0.00,VWS V14.01,2013-03-21 07:12:00,
2013-03-21 07:17:00,38.5,38.0,29.94,ESE,110,4.0,5.8,98,0.00,,BKN036,0.00,VWS V14.01,2013-03-21 07:17:00,
2013-03-21 07:22:00,38.7,38.2,29.94,ESE,122,5.4,5.8,98,0.00,,BKN036,0.00,VWS V14.01,2013-03-21 07:22:00,
2013-03-21 07:27:00,38.7,38.2,29.94,SE,136,4.0,4.9,98,0.00,,BKN036,0.00,VWS V14.01,2013-03-21 07:27:00,
2013-03-21 07:32:00,38.8,38.3,29.94,ENE,75,4.5,6.3,98,0.00,,BKN036,0.00,VWS V14.01,2013-03-21 07:32:00,
2013-03-21 07:38:00,39.0,38.5,29.94,ESE,110,6.3,6.3,98,0.00,,BKN036,0.00,VWS V14.01,2013-03-21 07:38:00,
2013-03-21 07:43:00,39.2,38.7,29.94,ESE,122,6.3,7.6,98,0.00,,BKN036,0.00,VWS V14.01,2013-03-21 07:43:00,
2013-03-21 07:48:00,39.2,38.7,29.94,ESE,109,4.0,6.3,98,0.00,,BKN036,0.00,VWS V14.01,2013-03-21 07:48:00,
2013-03-21 07:53:00,39.4,38.9,29.94,NE,50,7.6,8.1,98,0.00,,BKN036,0.00,VWS V14.01,2013-03-21 07:53:00,
2013-03-21 07:58:00,39.4,38.9,29.94,NE,55,5.4,6.3,98,0.00,,BKN036,0.00,VWS V14.01,2013-03-21 07:58:00,
2013-03-21 08:03:00,39.7,39.2,29.94,East,82,4.0,4.0,98,0.00,,BKN036,0.00,VWS V14.01,2013-03-21 08:03:00,
2013-03-21 08:08:00,40.1,39.6,29.94,ENE,69,4.0,4.0,98,0.00,,BKN036,0.00,VWS V14.01,2013-03-21 08:08:00,
2013-03-21 08:13:00,40.5,39.9,29.94,East,101,4.0,4.0,98,0.00,,BKN036,0.00,VWS V14.01,2013-03-21 08:13:00,
2013-03-21 08:18:00,40.6,40.1,29.94,East,88,6.3,6.3,98,0.00,,BKN036,0.00,VWS V14.01,2013-03-21 08:18:00,
2013-03-21 08:23:00,41.0,40.5,29.94,SE,124,7.6,8.1,98,0.00,,BKN036,0.00,VWS V14.01,2013-03-21 08:23:00,
2013-03-21 08:28:00,41.2,40.7,29.94,ESE,102,5.4,5.8,98,0.00,,BKN036,0.00,VWS V14.01,2013-03-21 08:28:00,
2013-03-21 08:33:00,41.4,40.8,29.94,ESE,116,6.3,6.3,98,0.00,,BKN036,0.00,VWS V14.01,2013-03-21 08:33:00,
2013-03-21 08:38:00,41.2,40.7,29.94,East,99,8.1,8.1,98,0.00,,BKN036,0.00,VWS V14.01,2013-03-21 08:38:00,
2013-03-21 08:43:00,41.2,40.7,29.94,ESE,111,5.4,5.4,98,0.00,,BKN036,0.00,VWS V14.01,2013-03-21 08:43:00,
2013-03-21 08:48:00,41.5,41.0,29.94,ESE,112,5.8,5.8,98,0.00,,BKN036,0.00,VWS V14.01,2013-03-21 08:48:00,
2013-03-21 08:53:00,42.1,41.6,29.94,ESE,116,7.6,8.7,98,0.00,,BKN036,0.00,VWS V14.01,2013-03-21 08:53:00,
2013-03-21 08:58:00,42.6,42.1,29.94,SE,125,6.3,10.5,98,0.00,,BKN036,0.00,VWS V14.01,2013-03-21 08:58:00,
2013-03-21 09:03:00,43.3,42.8,29.94,East,100,6.7,6.7,98,0.00,,BKN044,0.00,VWS V14.01,2013-03-21 09:03:00,
2013-03-21 09:09:00,43.5,43.0,29.94,SE,133,10.1,10.1,98,0.00,,BKN044,0.00,VWS V14.01,2013-03-21 09:09:00,
2013-03-21 09:14:00,43.7,43.2,29.94,SE,125,8.1,8.7,98,0.00,,BKN044,0.00,VWS V14.01,2013-03-21 09:14:00,
2013-03-21 09:19:00,43.9,43.3,29.94,SE,129,5.4,8.7,98,0.00,,BKN044,0.00,VWS V14.01,2013-03-21 09:19:00,
2013-03-21 09:24:00,44.1,43.5,29.94,ESE,115,8.3,9.2,98,0.00,,BKN044,0.00,VWS V14.01,2013-03-21 09:24:00,
2013-03-21 09:29:00,44.1,43.0,29.94,East,88,5.4,5.4,96,0.00,,BKN044,0.00,VWS V14.01,2013-03-21 09:29:00,
2013-03-21 09:34:00,44.2,42.6,29.94,SE,134,6.3,6.3,94,0.00,,BKN044,0.00,VWS V14.01,2013-03-21 09:34:00,
2013-03-21 09:39:00,44.1,41.6,29.94,SE,139,5.4,8.1,91,0.00,,BKN044,0.00,VWS V14.01,2013-03-21 09:39:00,
2013-03-21 09:44:00,44.1,41.6,29.94,SE,130,8.7,8.7,91,0.00,,BKN044,0.00,VWS V14.01,2013-03-21 09:44:00,
2013-03-21 09:49:00,44.2,41.8,29.94,ESE,115,5.8,10.1,91,0.00,,BKN044,0.00,VWS V14.01,2013-03-21 09:49:00,
2013-03-21 09:54:00,44.4,42.2,29.94,ESE,113,11.0,11.0,92,0.00,,BKN044,0.00,VWS V14.01,2013-03-21 09:54:00,
2013-03-21 09:59:00,44.6,42.1,29.94,ESE,123,9.6,9.6,91,0.00,,BKN044,0.00,VWS V14.01,2013-03-21 09:59:00,
2013-03-21 10:04:00,44.8,42.0,29.94,SE,124,5.8,8.1,90,0.00,,FEW020,0.00,VWS V14.01,2013-03-21 10:04:00,
2013-03-21 10:09:00,44.6,39.8,29.94,SE,136,5.4,8.7,83,0.00,,FEW020,0.00,VWS V14.01,2013-03-21 10:09:00,
2013-03-21 10:14:00,44.8,39.9,29.94,SE,141,10.1,10.1,83,0.00,,FEW020,0.00,VWS V14.01,2013-03-21 10:14:00,
2013-03-21 10:19:00,44.6,39.1,29.94,ESE,114,8.3,8.3,81,0.00,,FEW020,0.00,VWS V14.01,2013-03-21 10:19:00,
2013-03-21 10:24:00,44.8,39.0,29.94,SE,135,5.4,8.1,80,0.00,,FEW020,0.00,VWS V14.01,2013-03-21 10:24:00,
2013-03-21 10:29:00,45.1,40.9,29.94,SE,124,8.3,8.3,85,0.00,,FEW020,0.00,VWS V14.01,2013-03-21 10:29:00,
2013-03-21 10:34:00,45.0,39.8,29.94,ESE,123,8.1,8.3,82,0.00,,FEW020,0.00,VWS V14.01,2013-03-21 10:34:00,
2013-03-21 10:40:00,45.1,39.3,29.94,SE,138,8.3,10.5,80,0.00,,FEW020,0.00,VWS V14.01,2013-03-21 10:40:00,
2013-03-21 10:45:00,45.1,39.3,29.94,SSE,154,8.3,8.3,80,0.00,,FEW020,0.00,VWS V14.01,2013-03-21 10:45:00,
2013-03-21 10:50:00,45.3,39.8,29.94,ESE,110,8.3,8.3,81,0.00,,FEW020,0.00,VWS V14.01,2013-03-21 10:50:00,
2013-03-21 10:55:00,45.1,38.0,29.94,SE,139,6.3,11.0,76,0.00,,FEW020,0.00,VWS V14.01,2013-03-21 10:55:00,
2013-03-21 11:00:00,45.3,39.8,29.94,ESE,119,7.6,8.3,81,0.00,,FEW020,0.00,VWS V14.01,2013-03-21 11:00:00,
2013-03-21 11:05:00,45.7,40.8,29.94,ESE,120,5.4,8.1,83,0.00,,SCT022,0.00,VWS V14.01,2013-03-21 11:05:00,
2013-03-21 11:10:00,45.7,40.2,29.94,SSE,152,5.8,8.7,81,0.00,,SCT022,0.00,VWS V14.01,2013-03-21 11:10:00,
2013-03-21 11:15:00,45.7,39.5,29.94,SE,144,10.5,10.5,79,0.00,,SCT022,0.00,VWS V14.01,2013-03-21 11:15:00,
2013-03-21 11:20:00,45.5,38.7,29.94,ESE,117,8.3,10.5,77,0.00,,SCT022,0.00,VWS V14.01,2013-03-21 11:20:00,
2013-03-21 11:25:00,45.3,40.2,29.94,SE,128,8.7,8.7,82,0.00,,SCT022,0.00,VWS V14.01,2013-03-21 11:25:00,
2013-03-21 11:30:00,45.5,40.3,29.94,ESE,109,7.6,11.0,82,0.00,,SCT022,0.00,VWS V14.01,2013-03-21 11:30:00,
2013-03-21 11:35:00,45.5,39.7,29.94,East,96,10.5,10.5,80,0.00,,SCT022,0.00,VWS V14.01,2013-03-21 11:35:00,
2013-03-21 11:40:00,45.5,39.0,29.94,SE,132,8.7,8.7,78,0.00,,SCT022,0.00,VWS V14.01,2013-03-21 11:40:00,
2013-03-21 11:45:00,45.7,40.5,29.94,ESE,113,12.3,12.3,82,0.00,,SCT022,0.00,VWS V14.01,2013-03-21 11:45:00,
2013-03-21 11:50:00,45.5,38.0,29.94,ESE,112,5.4,6.3,75,0.00,,SCT022,0.00,VWS V14.01,2013-03-21 11:50:00,
2013-03-21 11:55:00,45.7,38.6,29.94,SE,133,10.5,11.0,76,0.00,,SCT022,0.00,VWS V14.01,2013-03-21 11:55:00,
2013-03-21 12:00:00,45.7,37.9,29.94,ENE,77,5.4,8.1,74,0.00,,SCT023,0.00,VWS V14.01,2013-03-21 12:00:00,
2013-03-21 12:05:00,46.4,39.6,29.94,SE,124,8.3,8.3,77,0.00,,SCT023,0.00,VWS V14.01,2013-03-21 12:05:00,
2013-03-21 12:10:00,46.0,36.5,29.94,SE,140,8.3,8.7,69,0.00,,SCT023,0.00,VWS V14.01,2013-03-21 12:10:00,
2013-03-21 12:15:00,46.2,38.4,29.94,ESE,122,10.1,11.0,74,0.00,,SCT023,0.00,VWS V14.01,2013-03-21 12:15:00,
2013-03-21 12:20:00,46.2,38.8,29.94,ESE,122,7.6,10.5,75,0.00,,SCT023,0.00,VWS V14.01,2013-03-21 12:20:00,
2013-03-21 12:26:00,46.2,38.8,29.94,ESE,114,10.1,10.1,75,0.00,,SCT023,0.00,VWS V14.01,2013-03-21 12:26:00,
2013-03-21 12:31:00,46.4,38.9,29.94,SE,128,10.1,11.9,75,0.00,,SCT023,0.00,VWS V14.01,2013-03-21 12:31:00,
2013-03-21 12:36:00,46.6,39.1,29.94,ESE,121,12.3,12.8,75,0.00,,SCT023,0.00,VWS V14.01,2013-03-21 12:36:00,
2013-03-21 12:41:00,45.9,34.4,29.94,ESE,122,8.7,13.2,64,0.00,,SCT023,0.00,VWS V14.01,2013-03-21 12:41:00,
2013-03-21 12:46:00,46.0,36.1,29.91,ESE,121,8.1,12.8,68,0.00,,SCT023,0.00,VWS V14.01,2013-03-21 12:46:00,
2013-03-21 12:51:00,45.9,35.9,29.91,ESE,111,8.3,9.6,68,0.00,,SCT023,0.00,VWS V14.01,2013-03-21 12:51:00,
2013-03-21 12:57:00,45.9,36.6,29.91,SE,133,11.0,11.0,70,0.00,,SCT023,0.00,VWS V14.01,2013-03-21 12:57:00,
2013-03-21 13:02:00,45.5,35.9,29.91,ESE,116,11.0,11.0,69,0.00,,SCT028,0.00,VWS V14.01,2013-03-21 13:02:00,
2013-03-21 13:07:00,45.5,35.9,29.91,SSE,151,10.1,10.1,69,0.00,,SCT028,0.00,VWS V14.01,2013-03-21 13:07:00,
2013-03-21 13:12:00,45.5,36.7,29.91,SE,132,9.6,12.3,71,0.00,,SCT028,0.00,VWS V14.01,2013-03-21 13:12:00,
2013-03-21 13:17:00,45.7,36.5,29.91,ESE,117,8.1,10.5,70,0.00,,SCT028,0.00,VWS V14.01,2013-03-21 13:17:00,
2013-03-21 13:22:00,45.9,38.4,29.91,ESE,113,12.3,12.3,75,0.00,,SCT028,0.00,VWS V14.01,2013-03-21 13:22:00,
2013-03-21 13:27:00,45.7,35.7,29.91,SE,124,11.9,11.9,68,0.00,,SCT028,0.00,VWS V14.01,2013-03-21 13:27:00,
2013-03-21 13:32:00,45.5,35.2,29.91,SSE,164,11.0,11.0,67,0.00,,SCT028,0.00,VWS V14.01,2013-03-21 13:32:00,
2013-03-21 13:37:00,45.3,33.5,29.91,East,97,8.7,8.7,63,0.00,,SCT028,0.00,VWS V14.01,2013-03-21 13:37:00,
2013-03-21 13:42:00,45.3,35.0,29.91,ESE,110,10.5,10.5,67,0.00,,SCT028,0.00,VWS V14.01,2013-03-21 13:42:00,
2013-03-21 13:47:00,45.1,35.6,29.91,SE,130,8.1,11.0,69,0.00,,SCT028,0.00,VWS V14.01,2013-03-21 13:47:00,
2013-03-21 13:52:00,44.6,33.6,29.91,East,101,10.5,10.5,65,0.00,,SCT028,0.00,VWS V14.01,2013-03-21 13:52:00,
2013-03-21 13:57:00,45.0,34.7,29.91,ENE,68,10.1,14.5,67,0.00,,SCT028,0.00,VWS V14.01,2013-03-21 13:57:00,
2013-03-21 14:02:00,45.0,35.4,29.91,ESE,116,6.3,8.7,69,0.00,,SCT034,0.00,VWS V14.01,2013-03-21 14:02:00,
2013-03-21 14:07:00,45.1,37.7,29.91,SE,131,8.1,8.3,75,0.00,,SCT034,0.00,VWS V14.01,2013-03-21 14:07:00,
2013-03-21 14:12:00,45.1,37.4,29.91,SE,130,8.1,9.2,74,0.00,,SCT034,0.00,VWS V14.01,2013-03-21 14:12:00,
2013-03-21 14:17:00,45.0,35.8,29.91,ESE,112,11.0,12.3,70,0.00,,SCT034,0.00,VWS V14.01,2013-03-21 14:17:00,
2013-03-21 14:22:00,45.0,35.4,29.91,ESE,123,7.6,11.0,69,0.00,,SCT034,0.00,VWS V14.01,2013-03-21 14:22:00,
2013-03-21 14:27:00,44.8,34.9,29.88,ESE,117,5.4,11.0,68,0.00,,SCT034,0.00,VWS V14.01,2013-03-21 14:27:00,
2013-03-21 14:32:00,44.8,33.8,29.88,ENE,72,10.5,10.5,65,0.00,,SCT034,0.00,VWS V14.01,2013-03-21 14:32:00,
2013-03-21 14:38:00,45.0,36.1,29.88,SE,128,11.0,11.0,71,0.00,,SCT034,0.00,VWS V14.01,2013-03-21 14:38:00,
2013-03-21 14:43:00,44.6,33.2,29.91,ESE,118,11.0,13.2,64,0.00,,SCT034,0.00,VWS V14.01,2013-03-21 14:43:00,
2013-03-21 14:48:00,44.8,35.6,29.91,East,93,8.3,12.8,70,0.00,,SCT034,0.00,VWS V14.01,2013-03-21 14:48:00,
2013-03-21 14:53:00,44.6,36.2,29.91,SE,131,12.8,12.8,72,0.00,,SCT034,0.00,VWS V14.01,2013-03-21 14:53:00,
2013-03-21 14:58:00,44.8,37.7,29.88,SSE,152,10.1,10.1,76,0.00,,SCT034,0.00,VWS V14.01,2013-03-21 14:58:00,
2013-03-21 15:03:00,44.6,36.5,29.88,East,100,4.0,9.6,73,0.00,,FEW033,0.00,VWS V14.01,2013-03-21 15:03:00,
2013-03-21 15:08:00,44.6,36.8,29.88,East,101,7.6,10.1,74,0.00,,FEW033,0.00,VWS V14.01,2013-03-21 15:08:00,
2013-03-21 15:13:00,44.4,36.3,29.88,SE,128,10.5,11.0,73,0.00,,FEW033,0.00,VWS V14.01,2013-03-21 15:13:00,
2013-03-21 15:18:00,44.2,35.8,29.88,ESE,109,8.1,13.6,72,0.00,,FEW033,0.00,VWS V14.01,2013-03-21 15:18:00,
2013-03-21 15:23:00,44.1,34.6,29.88,ESE,105,8.7,10.5,69,0.00,,FEW033,0.00,VWS V14.01,2013-03-21 15:23:00,
2013-03-21 15:28:00,44.1,35.3,29.88,SE,130,8.7,12.8,71,0.00,,FEW033,0.00,VWS V14.01,2013-03-21 15:28:00,
2013-03-21 15:33:00,44.1,35.3,29.88,ESE,118,11.4,15.0,71,0.00,,FEW033,0.00,VWS V14.01,2013-03-21 15:33:00,
2013-03-21 15:38:00,44.2,36.5,29.88,ESE,119,8.1,8.7,74,0.00,,FEW033,0.00,VWS V14.01,2013-03-21 15:38:00,
2013-03-21 15:43:00,43.9,34.0,29.88,SE,139,13.2,13.2,68,0.00,,FEW033,0.00,VWS V14.01,2013-03-21 15:43:00,
2013-03-21 15:48:00,43.9,32.1,29.88,ESE,119,15.4,15.4,63,0.00,,FEW033,0.00,VWS V14.01,2013-03-21 15:48:00,
2013-03-21 15:53:00,43.7,34.2,29.88,SE,141,12.8,16.3,69,0.00,,FEW033,0.00,VWS V14.01,2013-03-21 15:53:00,
2013-03-21 15:58:00,43.9,34.4,29.88,SSE,152,8.3,12.8,69,0.00,,FEW033,0.00,VWS V14.01,2013-03-21 15:58:00,
2013-03-21 16:03:00,43.5,31.0,29.88,SE,127,10.5,13.2,61,0.00,,FEW049,0.00,VWS V14.01,2013-03-21 16:03:00,
2013-03-21 16:08:00,43.5,32.2,29.88,SE,125,17.0,17.0,64,0.00,,FEW049,0.00,VWS V14.01,2013-03-21 16:08:00,
2013-03-21 16:13:00,43.7,35.3,29.88,East,89,8.3,8.3,72,0.00,,FEW049,0.00,VWS V14.01,2013-03-21 16:13:00,
2013-03-21 16:18:00,43.7,34.6,29.88,SE,127,8.7,10.5,70,0.00,,FEW049,0.00,VWS V14.01,2013-03-21 16:18:00,
2013-03-21 16:23:00,43.5,32.9,29.88,ESE,118,4.0,8.1,66,0.00,,FEW049,0.00,VWS V14.01,2013-03-21 16:23:00,
2013-03-21 16:28:00,43.3,31.2,29.88,ESE,108,8.3,10.1,62,0.00,,FEW049,0.00,VWS V14.01,2013-03-21 16:28:00,
2013-03-21 16:33:00,43.7,34.2,29.88,ESE,121,8.1,13.2,69,0.00,,FEW049,0.00,VWS V14.01,2013-03-21 16:33:00,
2013-03-21 16:38:00,43.5,33.7,29.88,East,87,8.7,8.7,68,0.00,,FEW049,0.00,VWS V14.01,2013-03-21 16:38:00,
2013-03-21 16:43:00,43.5,35.1,29.88,ESE,106,10.1,10.1,72,0.00,,FEW049,0.00,VWS V14.01,2013-03-21 16:43:00,
2013-03-21 16:48:00,43.5,35.1,29.88,SE,133,11.0,12.8,72,0.00,,FEW049,0.00,VWS V14.01,2013-03-21 16:48:00,
2013-03-21 16:53:00,43.5,34.8,29.88,SSE,154,5.8,8.7,71,0.00,,FEW049,0.00,VWS V14.01,2013-03-21 16:53:00,
2013-03-21 16:58:00,43.3,34.6,29.88,SE,131,12.3,16.3,71,0.00,,FEW049,0.00,VWS V14.01,2013-03-21 16:58:00,
2013-03-21 17:03:00,43.0,33.5,29.88,SE,126,8.1,11.0,69,0.00,,BKN033,0.00,VWS V14.01,2013-03-21 17:03:00,
2013-03-21 17:09:00,42.6,32.4,29.88,SE,133,10.1,13.2,67,0.00,,BKN033,0.00,VWS V14.01,2013-03-21 17:09:00,
2013-03-21 17:14:00,43.0,34.2,29.88,SE,126,10.1,15.4,71,0.00,,BKN033,0.00,VWS V14.01,2013-03-21 17:14:00,
2013-03-21 17:19:00,43.0,34.2,29.88,SE,136,10.1,11.0,71,0.00,,BKN033,0.00,VWS V14.01,2013-03-21 17:19:00,
2013-03-21 17:24:00,43.0,34.9,29.88,SE,130,8.3,9.2,73,0.00,,BKN033,0.00,VWS V14.01,2013-03-21 17:24:00,
2013-03-21 17:29:00,43.0,35.3,29.88,ESE,114,9.2,11.0,74,0.00,,BKN033,0.00,VWS V14.01,2013-03-21 17:29:00,
2013-03-21 17:34:00,43.0,35.3,29.88,ESE,114,5.8,8.3,74,0.00,,BKN033,0.00,VWS V14.01,2013-03-21 17:34:00,
2013-03-21 17:39:00,42.8,35.8,29.88,East,88,11.0,12.8,76,0.00,,BKN033,0.00,VWS V14.01,2013-03-21 17:39:00,
2013-03-21 17:44:00,43.0,36.0,29.88,ENE,58,5.4,5.4,76,0.00,,BKN033,0.00,VWS V14.01,2013-03-21 17:44:00,
2013-03-21 17:49:00,43.0,36.0,29.88,SE,126,7.6,7.6,76,0.00,,BKN033,0.00,VWS V14.01,2013-03-21 17:49:00,
2013-03-21 17:54:00,42.8,35.4,29.88,SE,132,11.0,11.0,75,0.00,,BKN033,0.00,VWS V14.01,2013-03-21 17:54:00,
2013-03-21 17:59:00,42.8,36.1,29.88,ESE,122,6.3,8.3,77,0.00,,BKN033,0.00,VWS V14.01,2013-03-21 17:59:00,
2013-03-21 18:04:00,42.8,36.1,29.88,ESE,107,10.5,10.5,77,0.00,,SCT032,0.00,VWS V14.01,2013-03-21 18:04:00,
2013-03-21 18:09:00,42.3,34.2,29.88,ESE,120,10.1,12.8,73,0.00,,SCT032,0.00,VWS V14.01,2013-03-21 18:09:00,
2013-03-21 18:14:00,42.4,34.4,29.88,SE,128,8.7,10.5,73,0.00,,SCT032,0.00,VWS V14.01,2013-03-21 18:14:00,
2013-03-21 18:20:00,42.3,33.9,29.88,SE,134,11.0,12.8,72,0.00,,SCT032,0.00,VWS V14.01,2013-03-21 18:20:00,
2013-03-21 18:25:00,42.3,34.6,29.88,ESE,114,10.5,10.5,74,0.00,,SCT032,0.00,VWS V14.01,2013-03-21 18:25:00,
2013-03-21 18:30:00,42.3,34.6,29.88,SE,126,8.3,12.3,74,0.00,,SCT032,0.00,VWS V14.01,2013-03-21 18:30:00,
2013-03-21 18:35:00,42.3,35.6,29.88,SE,131,5.8,10.1,77,0.00,,SCT032,0.00,VWS V14.01,2013-03-21 18:35:00,
2013-03-21 18:40:00,42.1,35.1,29.88,ESE,114,11.4,13.6,76,0.00,,SCT032,0.00,VWS V14.01,2013-03-21 18:40:00,
2013-03-21 18:45:00,41.9,34.6,29.88,ESE,117,8.7,11.0,75,0.00,,SCT032,0.00,VWS V14.01,2013-03-21 18:45:00,
2013-03-21 18:50:00,41.9,34.9,29.88,ENE,74,8.3,8.3,76,0.00,,SCT032,0.00,VWS V14.01,2013-03-21 18:50:00,
2013-03-21 18:55:00,41.7,34.7,29.88,ESE,110,8.3,9.6,76,0.00,,SCT032,0.00,VWS V14.01,2013-03-21 18:55:00,
2013-03-21 19:00:00,41.5,34.5,29.88,ESE,102,8.7,10.5,76,0.00,,BKN028,0.00,VWS V14.01,2013-03-21 19:00:00,
2013-03-21 19:05:00,41.4,33.7,29.88,ESE,106,8.3,9.2,74,0.00,,BKN028,0.00,VWS V14.01,2013-03-21 19:05:00,
2013-03-21 19:10:00,41.2,34.5,29.88,East,89,11.9,11.9,77,0.00,,BKN028,0.00,VWS V14.01,2013-03-21 19:10:00,
2013-03-21 19:15:00,41.4,35.0,29.88,ESE,119,8.7,10.1,78,0.00,,BKN028,0.00,VWS V14.01,2013-03-21 19:15:00,
2013-03-21 19:20:00,41.4,36.0,29.88,East,98,11.0,11.0,81,0.00,,BKN028,0.00,VWS V14.01,2013-03-21 19:20:00,
2013-03-21 19:25:00,41.2,36.1,29.88,ENE,78,8.7,9.2,82,0.00,,BKN028,0.00,VWS V14.01,2013-03-21 19:25:00,
2013-03-21 19:31:00,41.2,36.1,29.88,SE,135,8.1,12.8,82,0.00,,BKN028,0.00,VWS V14.01,2013-03-21 19:31:00,
2013-03-21 19:36:00,41.2,34.5,29.88,East,93,5.4,8.3,77,0.00,,BKN028,0.00,VWS V14.01,2013-03-21 19:36:00,
2013-03-21 19:41:00,41.0,34.7,29.88,ESE,111,8.3,15.0,78,0.00,,BKN028,0.00,VWS V14.01,2013-03-21 19:41:00,
2013-03-21 19:46:00,41.0,34.7,29.88,ESE,119,10.1,10.1,78,0.00,,BKN028,0.00,VWS V14.01,2013-03-21 19:46:00,
2013-03-21 19:51:00,41.2,35.2,29.88,SE,133,6.3,12.3,79,0.00,,BKN028,0.00,VWS V14.01,2013-03-21 19:51:00,
2013-03-21 19:56:00,41.2,35.8,29.88,ESE,109,3.6,5.4,81,0.00,,BKN028,0.00,VWS V14.01,2013-03-21 19:56:00,
2013-03-21 20:01:00,40.8,34.8,29.88,ESE,107,7.6,8.7,79,0.00,,OVC035,0.00,VWS V14.01,2013-03-21 20:01:00,
2013-03-21 20:06:00,41.0,34.7,29.88,ESE,114,5.4,5.8,78,0.00,,OVC035,0.00,VWS V14.01,2013-03-21 20:06:00,
2013-03-21 20:11:00,40.8,34.2,29.88,ESE,119,6.3,8.3,77,0.00,,OVC035,0.00,VWS V14.01,2013-03-21 20:11:00,
2013-03-21 20:16:00,40.6,33.7,29.88,ESE,119,8.3,10.5,76,0.00,,OVC035,0.00,VWS V14.01,2013-03-21 20:16:00,
2013-03-21 20:21:00,40.8,34.2,29.88,SE,125,5.4,7.6,77,0.00,,OVC035,0.00,VWS V14.01,2013-03-21 20:21:00,
2013-03-21 20:27:00,40.6,35.0,29.88,ESE,122,7.6,11.0,80,0.00,,OVC035,0.00,VWS V14.01,2013-03-21 20:27:00,
2013-03-21 20:32:00,40.5,34.8,29.88,ESE,103,11.0,12.3,80,0.00,,OVC035,0.00,VWS V14.01,2013-03-21 20:32:00,
2013-03-21 20:37:00,40.5,34.8,29.88,East,95,8.3,12.8,80,0.00,,OVC035,0.00,VWS V14.01,2013-03-21 20:37:00,
2013-03-21 20:42:00,40.5,35.7,29.88,ESE,103,7.6,7.6,83,0.00,,OVC035,0.00,VWS V14.01,2013-03-21 20:42:00,
2013-03-21 20:47:00,40.5,36.3,29.88,NE,36,6.3,10.5,85,0.00,,OVC035,0.00,VWS V14.01,2013-03-21 20:47:00,
2013-03-21 20:52:00,40.3,36.4,29.88,East,83,8.1,8.3,86,0.00,,OVC035,0.00,VWS V14.01,2013-03-21 20:52:00,
2013-03-21 20:57:00,40.3,36.4,29.88,ESE,120,12.3,14.5,86,0.00,,OVC035,0.00,VWS V14.01,2013-03-21 20:57:00,
2013-03-21 21:02:00,40.3,36.4,29.88,East,89,10.1,11.0,86,0.00,,-RA,0.00,VWS V14.01,2013-03-21 21:02:00,
2013-03-21 21:07:00,40.3,36.7,29.88,SSE,152,6.3,10.5,87,0.00,,-RA,0.00,VWS V14.01,2013-03-21 21:07:00,
2013-03-21 21:12:00,40.5,36.9,29.88,East,79,8.1,8.1,87,0.00,,-RA,0.00,VWS V14.01,2013-03-21 21:12:00,
2013-03-21 21:17:00,40.5,37.2,29.88,ESE,106,8.7,8.7,88,0.00,,-RA,0.00,VWS V14.01,2013-03-21 21:17:00,
2013-03-21 21:22:00,40.5,37.5,29.88,ESE,113,8.1,8.1,89,0.00,,-RA,0.00,VWS V14.01,2013-03-21 21:22:00,
2013-03-21 21:27:00,40.5,37.8,29.88,East,98,10.1,10.1,90,0.00,,-RA,0.00,VWS V14.01,2013-03-21 21:27:00,
2013-03-21 21:32:00,40.5,37.8,29.88,ENE,65,7.6,8.1,90,0.00,,-RA,0.00,VWS V14.01,2013-03-21 21:32:00,
2013-03-21 21:37:00,40.5,38.0,29.88,ESE,114,10.1,10.5,91,0.00,,-RA,0.00,VWS V14.01,2013-03-21 21:37:00,
2013-03-21 21:43:00,40.6,38.2,29.85,East,100,5.4,6.3,91,0.00,,-RA,0.00,VWS V14.01,2013-03-21 21:43:00,
2013-03-21 21:48:00,40.6,38.2,29.85,ESE,106,8.7,11.0,91,0.00,,-RA,0.00,VWS V14.01,2013-03-21 21:48:00,
2013-03-21 21:53:00,40.6,38.2,29.85,SE,130,4.0,10.1,91,0.00,,-RA,0.00,VWS V14.01,2013-03-21 21:53:00,
2013-03-21 21:58:00,40.8,38.7,29.85,East,101,8.3,8.3,92,0.00,,-RA,0.00,VWS V14.01,2013-03-21 21:58:00,
2013-03-21 22:03:00,40.8,39.0,29.85,ENE,73,6.3,6.3,93,0.00,,-RA,0.00,VWS V14.01,2013-03-21 22:03:00,
2013-03-21 22:08:00,40.8,39.0,29.85,East,93,12.3,13.2,93,0.00,,-RA,0.00,VWS V14.01,2013-03-21 22:08:00,
2013-03-21 22:13:00,41.0,38.9,29.85,East,97,7.6,8.7,92,0.00,,-RA,0.00,VWS V14.01,2013-03-21 22:13:00,
2013-03-21 22:18:00,40.8,38.4,29.85,ESE,105,15.4,15.4,91,0.00,,-RA,0.00,VWS V14.01,2013-03-21 22:18:00,
2013-03-21 22:23:00,41.0,38.3,29.85,SE,129,8.3,12.8,90,0.00,,-RA,0.00,VWS V14.01,2013-03-21 22:23:00,
2013-03-21 22:28:00,41.0,38.3,29.85,ESE,123,11.0,11.0,90,0.00,,-RA,0.00,VWS V14.01,2013-03-21 22:28:00,
2013-03-21 22:33:00,40.6,37.7,29.85,East,95,8.1,12.3,89,0.00,,-RA,0.00,VWS V14.01,2013-03-21 22:33:00,
2013-03-21 22:38:00,40.6,37.4,29.85,ESE,116,8.1,12.8,88,0.00,,-RA,0.00,VWS V14.01,2013-03-21 22:38:00,
2013-03-21 22:43:00,40.6,37.1,29.85,ESE,115,8.3,8.3,87,0.00,,-RA,0.00,VWS V14.01,2013-03-21 22:43:00,
2013-03-21 22:48:00,40.5,37.2,29.85,ESE,116,8.1,10.1,88,0.00,,-RA,0.00,VWS V14.01,2013-03-21 22:48:00,
2013-03-21 22:54:00,40.6,37.7,29.85,SE,132,7.6,9.2,89,0.00,,-RA,0.00,VWS V14.01,2013-03-21 22:54:00,
2013-03-21 22:59:00,40.5,37.8,29.85,East,100,5.8,10.1,90,0.00,,-RA,0.00,VWS V14.01,2013-03-21 22:59:00,
2013-03-21 23:04:00,40.5,38.0,29.85,East,92,9.6,9.6,91,0.00,,RA,0.00,VWS V14.01,2013-03-21 23:04:00,
2013-03-21 23:09:00,40.3,37.9,29.85,ESE,118,13.2,14.1,91,0.00,,RA,0.00,VWS V14.01,2013-03-21 23:09:00,
2013-03-21 23:14:00,40.3,38.2,29.85,ESE,105,8.3,8.3,92,0.00,,RA,0.00,VWS V14.01,2013-03-21 23:14:00,
2013-03-21 23:19:00,40.1,38.0,29.85,East,90,7.6,8.1,92,0.00,,RA,0.00,VWS V14.01,2013-03-21 23:19:00,
2013-03-21 23:24:00,39.9,37.8,29.85,SE,124,8.3,9.2,92,0.00,,RA,0.00,VWS V14.01,2013-03-21 23:24:00,
2013-03-21 23:29:00,39.9,37.8,29.85,ESE,112,8.3,8.3,92,0.00,,RA,0.00,VWS V14.01,2013-03-21 23:29:00,
2013-03-21 23:34:00,39.9,37.8,29.85,ESE,114,8.3,11.0,92,0.00,,RA,0.00,VWS V14.01,2013-03-21 23:34:00,
2013-03-21 23:39:00,39.7,37.9,29.85,East,100,5.4,10.1,93,0.00,,RA,0.00,VWS V14.01,2013-03-21 23:39:00,
2013-03-21 23:44:00,39.7,37.9,29.85,ENE,58,8.7,8.7,93,0.00,,RA,0.00,VWS V14.01,2013-03-21 23:44:00,
2013-03-21 23:49:00,39.7,37.9,29.85,ESE,119,6.3,9.2,93,0.00,,RA,0.00,VWS V14.01,2013-03-21 23:49:00,
2013-03-21 23:54:00,39.7,38.2,29.85,ESE,112,7.6,8.1,94,0.00,,RA,0.00,VWS V14.01,2013-03-21 23:54:00,